Greenwood, VA

2:52 AM EST on February 06, 2016 (GMT -0500)
Pollak Vineyards | | Change Station
CLOSE
Current Station
Personal Weather Station
Location: Greenwood, VA
Elevation: 817 ft
Nearby Weather Stations

Elev 817 ft 38.03 °N, 78.79 °W | Updated 173 days ago

Clear
Clear
28 °F
Feels Like 28 °F
N
1
Wind Variable Wind from South
Gusts mph

Today
High -- | Low -- °F
--% Chance of Precip.
Yesterday
High -- | Low -- °F
Precip. -- in
Pressure 30.40 in
Visibility 10.0 miles
Clouds Clear
Dew Point 21 °F
Humidity 74%
Rainfall in
Snow Depth Not available.
7:15 AM 5:43 PM
Waning Crescent, 7% visible
METAR KSHD 060735Z AUTO 00000KT 10SM CLR M02/M06 A3040 RMK AO2 T10251059
Pressure 30.40 in
Visibility 10.0 miles
Clouds Clear
Dew Point 21 °F
Humidity 74%
Rainfall in
Snow Depth Not available.
7:15 AM 5:43 PM
Waning Crescent, 7% visible
METAR KSHD 060735Z AUTO 00000KT 10SM CLR M02/M06 A3040 RMK AO2 T10251059

10-Day Weather Forecast

Almanac

Astronomy

Feb. 06, 2016 Rise Set
Actual Time
Civil Twilight
Nautical Twilight
Astronomical Twilight
Moon
Length of Visible Light
Length of Day
Tomorrow will be .
, % of the Moon is Illuminated

Today's Extremes

State Highs State Lows

Community

WunderPhotos

Upload Photos

1,890,933 photos uploaded!

WunderBlog® & News

Nearby

Air Quality

  Air Quality AQ Index Pollutant
Not available.

Snow Depth

Station Depth Elevation

Earthquake Activity

City Distance Mag. Time & Date
Minimum magnitude displayed is 2.5.

Coastal Water Temperatures

Place Temperature

Stations

Nearby Weather Stations

Station Location Temp. Windchill Dew Point Humidity Wind Precip. Elev Updated Type
                   

Watches & Warnings

There are currently no watches in effect.